createdAt,value
2023-03-11T00:00:29.376Z,91.14
2023-03-11T00:02:58.555Z,91.48
2023-03-11T00:05:29.069Z,91.00
2023-03-11T00:07:56.289Z,90.30
2023-03-11T00:10:30.367Z,91.11
2023-03-11T00:12:57.851Z,90.76
2023-03-11T00:15:25.064Z,89.63
2023-03-11T00:17:52.345Z,90.13
2023-03-11T00:20:31.425Z,90.86
2023-03-11T00:22:58.447Z,90.41
2023-03-11T00:25:28.216Z,91.03
2023-03-11T00:27:54.994Z,89.76
2023-03-11T00:30:22.561Z,90.17
2023-03-11T00:32:51.044Z,90.24
2023-03-11T00:35:20.397Z,90.46
2023-03-11T00:37:47.996Z,89.68
2023-03-11T00:40:17.315Z,90.22
2023-03-11T00:42:44.045Z,88.93
2023-03-11T00:45:11.534Z,90.07
2023-03-11T00:47:38.169Z,89.30
2023-03-11T00:50:05.308Z,90.67
2023-03-11T00:52:31.732Z,89.90
2023-03-11T00:55:01.461Z,90.79
2023-03-11T00:57:29.115Z,89.82
2023-03-11T00:59:56.252Z,90.06
2023-03-11T01:02:24.205Z,89.79
2023-03-11T01:04:56.849Z,90.36
2023-03-11T01:07:23.341Z,89.14
2023-03-11T01:09:49.765Z,90.05
2023-03-11T01:12:16.171Z,89.56
2023-03-11T01:14:42.578Z,89.94
2023-03-11T01:17:08.986Z,90.87
2023-03-11T01:19:35.492Z,89.93
2023-03-11T01:22:01.876Z,89.64
2023-03-11T01:24:28.265Z,90.78
2023-03-11T01:26:54.651Z,90.41
2023-03-11T01:29:21.049Z,89.10
2023-03-11T01:31:47.453Z,90.96
2023-03-11T01:34:13.991Z,89.68
2023-03-11T01:36:40.910Z,90.85
2023-03-11T01:39:07.274Z,91.02
2023-03-11T01:41:33.667Z,91.37
2023-03-11T01:44:01.479Z,90.58
2023-03-11T01:46:59.708Z,90.55
2023-03-11T01:49:30.478Z,92.05
2023-03-11T01:52:03.656Z,91.74
2023-03-11T01:54:33.498Z,92.44
2023-03-11T01:57:01.971Z,91.73
2023-03-11T01:59:37.565Z,92.14
2023-03-11T02:02:29.614Z,91.55
2023-03-11T02:04:56.954Z,90.64
2023-03-11T02:07:24.218Z,90.95
2023-03-11T02:09:50.832Z,91.29
2023-03-11T02:12:17.771Z,90.05
2023-03-11T02:14:49.670Z,90.53
2023-03-11T02:17:16.646Z,90.54
2023-03-11T02:20:01.822Z,89.74
2023-03-11T02:22:33.242Z,90.12
2023-03-11T02:25:17.358Z,89.52
2023-03-11T02:27:47.768Z,89.71
2023-03-11T02:30:16.142Z,90.26
2023-03-11T02:32:48.295Z,90.07
2023-03-11T02:35:16.213Z,90.79
2023-03-11T02:37:47.477Z,90.83
2023-03-11T02:40:23.273Z,90.68
2023-03-11T02:42:57.908Z,91.09
2023-03-11T02:45:26.553Z,90.36
2023-03-11T02:47:55.249Z,91.29
2023-03-11T02:50:22.696Z,91.20
2023-03-11T02:52:49.893Z,91.18
2023-03-11T02:55:18.017Z,90.65
2023-03-11T02:57:44.817Z,91.03
2023-03-11T03:00:15.090Z,91.18
2023-03-11T03:02:46.593Z,90.51
2023-03-11T03:05:13.737Z,91.39
2023-03-11T03:07:40.874Z,90.54
2023-03-11T03:10:07.874Z,91.82
2023-03-11T03:12:34.287Z,91.03
2023-03-11T03:15:00.749Z,90.68
2023-03-11T03:17:27.245Z,90.11
2023-03-11T03:19:53.792Z,91.43
2023-03-11T03:22:20.175Z,90.58
2023-03-11T03:24:47.504Z,89.72
2023-03-11T03:27:14.137Z,89.51
2023-03-11T03:29:40.530Z,89.71
2023-03-11T03:32:07.431Z,90.38
2023-03-11T03:34:34.189Z,89.81
2023-03-11T03:37:00.711Z,88.65
2023-03-11T03:39:30.003Z,89.99
2023-03-11T03:41:57.032Z,88.20
2023-03-11T03:44:25.761Z,89.40
2023-03-11T03:46:52.257Z,89.34
2023-03-11T03:49:18.947Z,88.17
2023-03-11T03:51:46.168Z,88.19
2023-03-11T03:54:25.623Z,87.69
2023-03-11T03:56:52.348Z,87.70
2023-03-11T03:59:18.783Z,88.88
2023-03-11T04:01:49.808Z,87.45
2023-03-11T04:04:17.410Z,87.21
2023-03-11T04:06:43.852Z,88.20
2023-03-11T04:09:11.836Z,88.37
2023-03-11T04:11:38.514Z,88.25
2023-03-11T04:14:06.037Z,88.00
2023-03-11T04:16:36.370Z,87.27
2023-03-11T04:19:09.775Z,86.82
2023-03-11T04:21:36.547Z,88.50
2023-03-11T04:24:03.941Z,88.28
2023-03-11T04:26:34.220Z,87.52
2023-03-11T04:29:01.417Z,87.29
2023-03-11T04:31:31.344Z,88.22
2023-03-11T04:34:00.016Z,87.10
2023-03-11T04:36:26.532Z,87.50
2023-03-11T04:38:53.018Z,87.58
2023-03-11T04:41:20.957Z,87.67
2023-03-11T04:43:47.358Z,88.52
2023-03-11T04:46:13.892Z,87.82
2023-03-11T04:48:41.360Z,87.36
2023-03-11T04:51:08.350Z,88.22
2023-03-11T04:53:35.081Z,87.10
2023-03-11T04:56:02.006Z,87.75
2023-03-11T04:58:30.541Z,86.82
2023-03-11T05:01:05.510Z,87.80
2023-03-11T05:03:32.237Z,88.03
2023-03-11T05:06:00.085Z,87.52
2023-03-11T05:08:26.515Z,87.29
2023-03-11T05:10:53.386Z,86.52
2023-03-11T05:13:21.288Z,87.12
2023-03-11T05:15:48.531Z,87.00
2023-03-11T05:18:15.915Z,86.19
2023-03-11T05:20:42.784Z,85.91
2023-03-11T05:23:10.258Z,86.44
2023-03-11T05:25:37.337Z,85.81
2023-03-11T05:28:04.691Z,85.79
2023-03-11T05:30:33.455Z,86.81
2023-03-11T05:32:59.883Z,85.76
2023-03-11T05:35:27.104Z,85.84
2023-03-11T05:37:54.716Z,85.72
2023-03-11T05:40:22.199Z,85.60
2023-03-11T05:42:49.105Z,85.87
2023-03-11T05:45:16.404Z,85.28
2023-03-11T05:47:45.575Z,85.96
2023-03-11T05:50:13.988Z,85.70
2023-03-11T05:52:41.810Z,85.86
2023-03-11T05:55:11.307Z,86.29
2023-03-11T05:57:39.946Z,85.97
2023-03-11T06:00:12.172Z,86.07
2023-03-11T06:02:44.699Z,85.19
2023-03-11T06:05:14.919Z,85.89
2023-03-11T06:07:43.017Z,86.13
2023-03-11T06:10:10.315Z,85.27
2023-03-11T06:12:38.455Z,85.85
2023-03-11T06:15:24.092Z,85.70
2023-03-11T06:17:52.389Z,85.48
2023-03-11T06:20:19.425Z,86.82
2023-03-11T06:22:48.550Z,86.58
2023-03-11T06:25:15.410Z,86.52
2023-03-11T06:27:44.516Z,86.45
2023-03-11T06:30:11.776Z,86.66
2023-03-11T06:32:48.658Z,86.97
2023-03-11T06:35:15.156Z,85.38
2023-03-11T06:37:41.520Z,85.09
2023-03-11T06:40:10.838Z,85.28
2023-03-11T06:42:37.180Z,84.64
2023-03-11T06:45:04.849Z,85.86
2023-03-11T06:47:31.568Z,85.71
2023-03-11T06:49:59.125Z,85.12
2023-03-11T06:52:27.563Z,84.36
2023-03-11T06:54:55.583Z,85.43
2023-03-11T06:57:22.195Z,84.21
2023-03-11T06:59:50.335Z,83.81
2023-03-11T07:02:17.957Z,84.50
2023-03-11T07:04:44.443Z,83.57
2023-03-11T07:07:11.522Z,84.44
2023-03-11T07:09:38.070Z,84.12
2023-03-11T07:12:06.818Z,83.30
2023-03-11T07:14:35.851Z,83.29
2023-03-11T07:17:02.438Z,84.15
2023-03-11T07:19:36.474Z,84.08
2023-03-11T07:22:02.837Z,84.19
2023-03-11T07:24:29.352Z,83.77
2023-03-11T07:26:55.736Z,83.85
2023-03-11T07:29:22.063Z,84.47
2023-03-11T07:31:49.067Z,83.85
2023-03-11T07:34:15.467Z,82.94
2023-03-11T07:36:42.454Z,83.20
2023-03-11T07:39:16.492Z,82.61
2023-03-11T07:41:43.942Z,81.70
2023-03-11T07:44:13.484Z,81.15
2023-03-11T07:46:39.954Z,81.67
2023-03-11T07:49:06.313Z,80.68
2023-03-11T07:51:35.351Z,80.67
2023-03-11T07:54:02.970Z,79.42
2023-03-11T07:56:32.093Z,79.68
2023-03-11T07:59:00.436Z,79.16
2023-03-11T08:01:30.475Z,79.10
2023-03-11T08:03:58.559Z,78.69
2023-03-11T08:06:30.983Z,78.54
2023-03-11T08:08:59.389Z,78.05
2023-03-11T08:11:26.196Z,77.09
2023-03-11T08:13:53.595Z,77.24
2023-03-11T08:16:22.245Z,75.63
2023-03-11T08:18:50.233Z,76.74
2023-03-11T08:21:24.599Z,75.40
2023-03-11T08:23:52.148Z,74.84
2023-03-11T08:26:21.911Z,73.90
2023-03-11T08:28:49.372Z,75.64
2023-03-11T08:31:18.438Z,75.63
2023-03-11T08:33:47.296Z,74.04
2023-03-11T08:36:13.924Z,72.09
2023-03-11T08:38:40.459Z,72.48
2023-03-11T08:41:06.859Z,74.38
2023-03-11T08:43:33.602Z,71.72
2023-03-11T08:46:01.512Z,70.92
2023-03-11T08:48:28.350Z,72.84
2023-03-11T08:50:54.958Z,72.83
2023-03-11T08:53:23.022Z,70.50
2023-03-11T08:55:56.404Z,70.39
2023-03-11T08:58:22.748Z,70.03
2023-03-11T09:00:49.172Z,68.71
2023-03-11T09:03:15.486Z,68.77
2023-03-11T09:05:41.948Z,68.21
2023-03-11T09:08:08.455Z,67.50
2023-03-11T09:10:34.787Z,67.43
2023-03-11T09:13:01.184Z,66.96
2023-03-11T09:15:27.636Z,65.82
2023-03-11T09:17:54.239Z,66.31
2023-03-11T09:20:20.624Z,67.20
2023-03-11T09:22:47.265Z,67.60
2023-03-11T09:25:14.029Z,65.08
2023-03-11T09:27:41.277Z,66.62
2023-03-11T09:30:09.202Z,65.51
2023-03-11T09:32:35.781Z,65.73
2023-03-11T09:35:02.538Z,64.74
2023-03-11T09:37:30.117Z,65.83
2023-03-11T09:39:56.447Z,62.99
2023-03-11T09:42:54.156Z,63.64
2023-03-11T09:45:33.631Z,65.15
2023-03-11T09:48:30.338Z,63.24
2023-03-11T09:51:10.348Z,62.66
2023-03-11T09:53:43.399Z,62.78
2023-03-11T09:56:14.837Z,63.79
2023-03-11T09:58:43.321Z,65.67
2023-03-11T10:01:26.333Z,60.91
2023-03-11T10:04:00.407Z,61.45
2023-03-11T10:06:29.862Z,61.82
2023-03-11T10:09:28.942Z,62.89
2023-03-11T10:12:25.868Z,60.04
2023-03-11T10:14:55.029Z,59.82
2023-03-11T10:17:41.600Z,59.76
2023-03-11T10:20:17.966Z,59.86
2023-03-11T10:23:12.416Z,61.57
2023-03-11T10:25:54.141Z,63.20
2023-03-11T10:28:24.342Z,61.45
2023-03-11T10:30:57.343Z,60.38
2023-03-11T10:33:39.879Z,57.42
2023-03-11T10:36:12.526Z,60.34
2023-03-11T10:38:46.622Z,56.27
2023-03-11T10:41:30.030Z,57.64
2023-03-11T10:44:17.190Z,58.06
2023-03-11T10:46:43.608Z,55.50
2023-03-11T10:49:18.910Z,56.64
2023-03-11T10:51:47.573Z,56.94
2023-03-11T10:54:30.237Z,55.86
2023-03-11T10:56:59.623Z,58.06
2023-03-11T10:59:33.528Z,56.93
2023-03-11T11:02:26.125Z,53.80
2023-03-11T11:05:22.731Z,54.31
2023-03-11T11:07:53.060Z,55.11
2023-03-11T11:10:27.932Z,55.08
2023-03-11T11:13:02.398Z,53.97
2023-03-11T11:15:35.399Z,53.98
2023-03-11T11:18:17.937Z,52.37
2023-03-11T11:21:01.936Z,54.01
2023-03-11T11:23:42.592Z,54.74
2023-03-11T11:26:21.879Z,54.63
2023-03-11T11:29:09.036Z,53.35
2023-03-11T11:31:38.538Z,53.22
2023-03-11T11:34:30.789Z,54.03
2023-03-11T11:37:00.201Z,53.85
2023-03-11T11:39:28.877Z,56.32
2023-03-11T11:41:56.632Z,55.56
2023-03-11T11:44:33.736Z,54.63
2023-03-11T11:47:17.248Z,51.67
2023-03-11T11:49:57.218Z,53.80
2023-03-11T11:52:37.021Z,54.66
2023-03-11T11:55:30.599Z,54.66
2023-03-11T11:57:57.556Z,55.98
2023-03-11T12:00:34.264Z,56.96
2023-03-11T12:03:34.025Z,57.36
2023-03-11T12:06:27.775Z,54.51
2023-03-11T12:09:08.317Z,53.63
2023-03-11T12:11:59.487Z,53.01
2023-03-11T12:14:57.969Z,50.68
2023-03-11T12:17:26.353Z,48.73
2023-03-11T12:20:27.929Z,49.81
2023-03-11T12:23:21.283Z,52.21
2023-03-11T12:26:03.942Z,49.90
2023-03-11T12:28:39.416Z,51.61
2023-03-11T12:31:10.100Z,48.28
2023-03-11T12:33:43.372Z,45.78
2023-03-11T12:36:33.880Z,45.99
2023-03-11T12:39:03.279Z,45.94
2023-03-11T12:41:41.831Z,45.27
2023-03-11T12:44:29.044Z,45.29
2023-03-11T12:46:58.299Z,45.71
2023-03-11T12:49:31.029Z,45.83
2023-03-11T12:52:04.741Z,43.60
2023-03-11T12:54:36.826Z,42.32
2023-03-11T12:57:21.214Z,44.73
2023-03-11T13:00:17.923Z,44.69
2023-03-11T13:03:21.839Z,44.41
2023-03-11T13:06:11.651Z,43.00
2023-03-11T13:08:50.758Z,43.98
2023-03-11T13:11:26.171Z,47.75
2023-03-11T13:13:52.639Z,47.74
2023-03-11T13:16:19.179Z,47.98
2023-03-11T13:18:51.566Z,48.50
2023-03-11T13:21:27.169Z,48.06
2023-03-11T13:24:19.280Z,50.60
2023-03-11T13:27:07.088Z,48.59
2023-03-11T13:30:00.997Z,48.76
2023-03-11T13:32:52.404Z,49.33
2023-03-11T13:35:40.442Z,48.50
2023-03-11T13:38:13.830Z,47.96
2023-03-11T13:40:43.763Z,47.39
2023-03-11T13:43:21.817Z,48.85
2023-03-11T13:46:01.784Z,49.89
2023-03-11T13:48:37.794Z,49.88
2023-03-11T13:51:06.621Z,48.82
2023-03-11T13:53:44.165Z,49.49
2023-03-11T13:56:32.637Z,50.68
2023-03-11T13:59:24.859Z,50.52
2023-03-11T14:01:52.911Z,50.29
2023-03-11T14:04:27.433Z,49.22
2023-03-11T14:06:54.328Z,50.23
2023-03-11T14:09:22.718Z,51.50
2023-03-11T14:11:49.425Z,50.18
2023-03-11T14:14:38.872Z,49.74
2023-03-11T14:17:09.541Z,50.33
2023-03-11T14:19:36.698Z,50.40
2023-03-11T14:22:08.861Z,50.36
2023-03-11T14:24:36.255Z,51.56
2023-03-11T14:27:07.181Z,49.65
2023-03-11T14:29:38.971Z,47.41
2023-03-11T14:32:29.422Z,48.02
2023-03-11T14:34:56.602Z,49.86
2023-03-11T14:37:31.674Z,47.50
2023-03-11T14:39:58.068Z,47.91
2023-03-11T14:42:38.237Z,47.23
2023-03-11T14:45:11.265Z,48.23
2023-03-11T14:47:40.265Z,48.64
2023-03-11T14:50:13.179Z,49.50
2023-03-11T14:52:45.383Z,48.65
2023-03-11T14:55:16.138Z,47.59
2023-03-11T14:57:47.519Z,48.04
2023-03-11T15:00:19.287Z,50.00
2023-03-11T15:02:59.471Z,49.90
2023-03-11T15:05:41.301Z,48.46
2023-03-11T15:08:08.161Z,49.08
2023-03-11T15:10:34.895Z,48.65
2023-03-11T15:13:07.818Z,45.46
2023-03-11T15:15:34.564Z,49.20
2023-03-11T15:18:01.766Z,45.02
2023-03-11T15:20:36.878Z,46.32
2023-03-11T15:23:05.864Z,47.43
2023-03-11T15:25:34.823Z,47.66
2023-03-11T15:28:20.554Z,48.67
2023-03-11T15:30:46.960Z,50.62
2023-03-11T15:33:31.862Z,50.84
2023-03-11T15:35:58.333Z,49.66
2023-03-11T15:38:27.520Z,49.15
2023-03-11T15:41:00.983Z,47.78
2023-03-11T15:43:33.524Z,49.00
2023-03-11T15:46:01.952Z,49.81
2023-03-11T15:48:29.830Z,48.04
2023-03-11T15:50:58.463Z,49.09
2023-03-11T15:53:27.345Z,51.34
2023-03-11T15:56:03.866Z,50.69
2023-03-11T15:58:33.150Z,50.79
2023-03-11T16:01:00.052Z,50.40
2023-03-11T16:03:26.396Z,49.19
2023-03-11T16:05:52.923Z,48.51
2023-03-11T16:08:19.435Z,49.65
2023-03-11T16:10:45.851Z,47.87
2023-03-11T16:13:13.965Z,47.49
2023-03-11T16:15:42.166Z,48.57
2023-03-11T16:18:09.767Z,48.20
2023-03-11T16:20:38.551Z,49.47
2023-03-11T16:23:07.172Z,49.65
2023-03-11T16:25:36.774Z,49.61
2023-03-11T16:28:03.765Z,51.95
2023-03-11T16:30:32.411Z,52.70
2023-03-11T16:32:59.128Z,52.92
2023-03-11T16:35:26.134Z,52.53
2023-03-11T16:37:53.548Z,50.52
2023-03-11T16:40:25.180Z,50.38
2023-03-11T16:42:55.811Z,50.34
2023-03-11T16:45:22.401Z,50.09
2023-03-11T16:47:48.730Z,49.82
2023-03-11T16:50:15.071Z,50.45
2023-03-11T16:52:41.457Z,50.65
2023-03-11T16:55:08.956Z,50.31
2023-03-11T16:57:37.663Z,50.23
2023-03-11T17:00:06.761Z,50.64
2023-03-11T17:02:33.318Z,51.23
2023-03-11T17:04:59.729Z,49.98
2023-03-11T17:07:26.826Z,49.98
2023-03-11T17:09:53.161Z,50.17
2023-03-11T17:12:20.134Z,48.99
2023-03-11T17:14:46.689Z,49.57
2023-03-11T17:17:13.154Z,49.29
2023-03-11T17:19:39.642Z,49.30
2023-03-11T17:22:06.132Z,49.62
2023-03-11T17:24:32.509Z,49.94
2023-03-11T17:26:58.875Z,49.98
2023-03-11T17:29:25.396Z,50.38
2023-03-11T17:31:51.896Z,50.32
2023-03-11T17:34:18.366Z,50.97
2023-03-11T17:36:44.758Z,50.34
2023-03-11T17:39:11.049Z,50.27
2023-03-11T17:41:37.439Z,50.59
2023-03-11T17:44:03.904Z,50.85
2023-03-11T17:46:30.339Z,51.48
2023-03-11T17:48:56.885Z,51.92
2023-03-11T17:51:25.788Z,51.82
2023-03-11T17:53:54.631Z,52.72
2023-03-11T17:56:21.950Z,54.01
2023-03-11T17:58:49.651Z,54.87
2023-03-11T18:01:21.544Z,55.43
2023-03-11T18:03:48.701Z,56.10
2023-03-11T18:06:16.967Z,57.15
2023-03-11T18:08:43.298Z,57.17
2023-03-11T18:11:13.095Z,57.15
2023-03-11T18:13:40.461Z,57.25
2023-03-11T18:16:09.271Z,56.80
2023-03-11T18:18:36.598Z,56.94
2023-03-11T18:21:27.620Z,57.17
2023-03-11T18:23:55.957Z,57.30
2023-03-11T18:26:23.795Z,57.43
2023-03-11T18:28:55.859Z,57.59
2023-03-11T18:31:23.815Z,58.06
2023-03-11T18:33:53.333Z,57.75
2023-03-11T18:36:23.276Z,57.95
2023-03-11T18:38:51.917Z,57.86
2023-03-11T18:41:18.309Z,57.66
2023-03-11T18:43:44.848Z,58.66
2023-03-11T18:46:14.621Z,58.62
2023-03-11T18:48:41.434Z,58.60
2023-03-11T18:51:09.215Z,58.51
2023-03-11T18:53:35.906Z,58.32
2023-03-11T18:56:04.862Z,58.90
2023-03-11T18:58:31.393Z,58.06
2023-03-11T19:01:06.824Z,57.97
2023-03-11T19:03:33.481Z,57.98
2023-03-11T19:06:00.097Z,58.25
2023-03-11T19:08:27.009Z,58.56
2023-03-11T19:10:53.598Z,59.00
2023-03-11T19:13:20.415Z,59.50
2023-03-11T19:15:47.334Z,59.90
2023-03-11T19:18:14.619Z,60.31
2023-03-11T19:20:41.186Z,60.23
2023-03-11T19:23:08.231Z,59.95
2023-03-11T19:25:35.323Z,60.77
2023-03-11T19:28:01.793Z,61.42
2023-03-11T19:30:28.247Z,62.10
2023-03-11T19:32:54.790Z,62.68
2023-03-11T19:35:25.894Z,63.02
2023-03-11T19:37:56.730Z,63.74
2023-03-11T19:40:23.663Z,64.84
2023-03-11T19:42:50.167Z,65.15
2023-03-11T19:45:16.643Z,64.78
2023-03-11T19:47:46.344Z,66.01
2023-03-11T19:50:12.731Z,66.51
2023-03-11T19:52:39.312Z,65.97
2023-03-11T19:55:06.424Z,66.88
2023-03-11T19:57:32.812Z,66.20
2023-03-11T19:59:59.508Z,66.33
2023-03-11T20:02:26.032Z,67.33
2023-03-11T20:04:52.633Z,66.06
2023-03-11T20:07:19.393Z,66.35
2023-03-11T20:09:45.919Z,64.81
2023-03-11T20:12:12.391Z,65.54
2023-03-11T20:14:40.940Z,66.43
2023-03-11T20:17:07.958Z,66.03
2023-03-11T20:19:36.238Z,65.72
2023-03-11T20:22:02.718Z,65.85
2023-03-11T20:24:29.038Z,65.50
2023-03-11T20:26:55.780Z,65.83
2023-03-11T20:29:22.191Z,66.88
2023-03-11T20:31:50.498Z,66.59
2023-03-11T20:34:16.981Z,66.88
2023-03-11T20:36:43.434Z,68.17
2023-03-11T20:39:10.685Z,68.83
2023-03-11T20:41:38.997Z,68.08
2023-03-11T20:44:08.099Z,68.87
2023-03-11T20:46:34.781Z,68.70
2023-03-11T20:49:02.055Z,69.38
2023-03-11T20:51:28.687Z,69.95
2023-03-11T20:53:55.174Z,69.81
2023-03-11T20:56:23.918Z,68.96
2023-03-11T20:58:51.435Z,69.26
2023-03-11T21:01:21.481Z,70.00
2023-03-11T21:03:48.439Z,69.91
2023-03-11T21:06:19.114Z,70.12
2023-03-11T21:08:46.043Z,69.71
2023-03-11T21:11:13.429Z,69.30
2023-03-11T21:13:40.246Z,68.63
2023-03-11T21:16:07.716Z,68.78
2023-03-11T21:18:34.977Z,68.37
2023-03-11T21:21:01.987Z,68.38
2023-03-11T21:23:28.443Z,68.09
2023-03-11T21:26:03.175Z,68.38
2023-03-11T21:28:30.408Z,68.18
2023-03-11T21:30:58.686Z,68.42
2023-03-11T21:33:25.839Z,68.14
2023-03-11T21:35:57.039Z,68.13
2023-03-11T21:38:24.799Z,68.21
2023-03-11T21:40:52.316Z,68.75
2023-03-11T21:43:20.634Z,68.50
2023-03-11T21:45:47.314Z,68.45
2023-03-11T21:48:14.183Z,69.10
2023-03-11T21:50:41.551Z,69.09
2023-03-11T21:53:08.146Z,69.80
2023-03-11T21:55:34.587Z,70.84
2023-03-11T21:58:01.093Z,69.64
2023-03-11T22:00:27.768Z,70.95
2023-03-11T22:02:54.246Z,71.21
2023-03-11T22:05:20.588Z,71.33
2023-03-11T22:07:47.060Z,70.00
2023-03-11T22:10:13.535Z,71.52
2023-03-11T22:12:40.213Z,70.60
2023-03-11T22:15:07.022Z,70.24
2023-03-11T22:17:33.516Z,70.31
2023-03-11T22:20:00.239Z,70.49
2023-03-11T22:22:26.787Z,71.23
2023-03-11T22:24:53.204Z,70.98
2023-03-11T22:27:19.537Z,70.67
2023-03-11T22:29:45.853Z,71.24
2023-03-11T22:32:12.211Z,71.00
2023-03-11T22:34:38.599Z,71.68
2023-03-11T22:37:05.097Z,72.13
2023-03-11T22:39:31.454Z,72.10
2023-03-11T22:41:57.802Z,72.69
2023-03-11T22:44:24.257Z,71.67
2023-03-11T22:46:50.778Z,72.50
2023-03-11T22:49:17.124Z,72.71
2023-03-11T22:51:43.446Z,72.82
2023-03-11T22:54:09.869Z,72.76
2023-03-11T22:56:36.212Z,72.56
2023-03-11T22:59:02.801Z,73.83
2023-03-11T23:01:29.114Z,73.24
2023-03-11T23:03:55.587Z,73.02
2023-03-11T23:06:22.053Z,73.58
2023-03-11T23:08:48.891Z,74.24
2023-03-11T23:11:21.032Z,74.85
2023-03-11T23:13:48.432Z,74.13
2023-03-11T23:16:20.319Z,74.98
2023-03-11T23:18:47.972Z,75.08
2023-03-11T23:21:17.352Z,75.29
2023-03-11T23:23:44.202Z,75.35
2023-03-11T23:26:12.102Z,75.96
2023-03-11T23:28:41.194Z,76.09
2023-03-11T23:31:12.517Z,76.09
2023-03-11T23:33:39.650Z,76.62
2023-03-11T23:36:12.626Z,77.25
2023-03-11T23:38:39.223Z,76.61
2023-03-11T23:41:11.319Z,76.94
2023-03-11T23:43:38.031Z,77.66
2023-03-11T23:46:04.791Z,77.37
2023-03-11T23:48:31.400Z,77.17
2023-03-11T23:50:58.074Z,77.10
2023-03-11T23:53:26.621Z,77.51
2023-03-11T23:55:53.154Z,78.06
2023-03-11T23:58:20.335Z,77.56
